sensor_id;sensor_type;location;lat;lon;timestamp;temperature;humidity
79301;SHT31;68755;51.984;5.646;2023-04-05T00:01:49;6.8;53.1
79301;SHT31;68755;51.984;5.646;2023-04-05T00:04:20;6.7;53.5
79301;SHT31;68755;51.984;5.646;2023-04-05T00:06:50;6.7;53.3
79301;SHT31;68755;51.984;5.646;2023-04-05T00:09:21;6.7;53.0
79301;SHT31;68755;51.984;5.646;2023-04-05T00:11:51;6.6;53.0
79301;SHT31;68755;51.984;5.646;2023-04-05T00:14:20;6.6;53.0
79301;SHT31;68755;51.984;5.646;2023-04-05T00:16:52;6.6;52.7
79301;SHT31;68755;51.984;5.646;2023-04-05T00:19:21;6.5;52.8
79301;SHT31;68755;51.984;5.646;2023-04-05T00:21:53;6.5;52.5
79301;SHT31;68755;51.984;5.646;2023-04-05T00:24:23;6.5;52.5
79301;SHT31;68755;51.984;5.646;2023-04-05T00:26:54;6.4;52.7
79301;SHT31;68755;51.984;5.646;2023-04-05T00:29:24;6.4;52.8
79301;SHT31;68755;51.984;5.646;2023-04-05T00:31:54;6.4;52.3
79301;SHT31;68755;51.984;5.646;2023-04-05T00:34:24;6.4;52.3
79301;SHT31;68755;51.984;5.646;2023-04-05T00:36:54;6.4;53.3
79301;SHT31;68755;51.984;5.646;2023-04-05T00:39:23;6.4;52.3
79301;SHT31;68755;51.984;5.646;2023-04-05T00:41:54;6.4;52.1
79301;SHT31;68755;51.984;5.646;2023-04-05T00:44:26;6.4;52.1
79301;SHT31;68755;51.984;5.646;2023-04-05T00:46:55;6.4;51.9
79301;SHT31;68755;51.984;5.646;2023-04-05T00:49:25;6.3;52.4
79301;SHT31;68755;51.984;5.646;2023-04-05T00:51:55;6.3;52.1
79301;SHT31;68755;51.984;5.646;2023-04-05T00:54:26;6.3;52.3
79301;SHT31;68755;51.984;5.646;2023-04-05T00:56:57;6.2;53.0
79301;SHT31;68755;51.984;5.646;2023-04-05T00:59:28;6.2;53.1
79301;SHT31;68755;51.984;5.646;2023-04-05T01:02:00;6.1;52.5
79301;SHT31;68755;51.984;5.646;2023-04-05T01:04:33;6.1;52.5
79301;SHT31;68755;51.984;5.646;2023-04-05T01:07:11;6.1;52.7
79301;SHT31;68755;51.984;5.646;2023-04-05T01:09:55;6.0;53.5
79301;SHT31;68755;51.984;5.646;2023-04-05T01:12:28;6.0;53.5
79301;SHT31;68755;51.984;5.646;2023-04-05T01:15:00;5.9;53.1
79301;SHT31;68755;51.984;5.646;2023-04-05T01:17:30;5.9;53.6
79301;SHT31;68755;51.984;5.646;2023-04-05T01:20:06;5.9;54.4
79301;SHT31;68755;51.984;5.646;2023-04-05T01:23:20;5.8;54.6
79301;SHT31;68755;51.984;5.646;2023-04-05T01:26:20;5.8;53.5
79301;SHT31;68755;51.984;5.646;2023-04-05T01:30:14;5.8;53.7
79301;SHT31;68755;51.984;5.646;2023-04-05T01:32:58;5.7;55.0
79301;SHT31;68755;51.984;5.646;2023-04-05T01:35:38;5.7;55.2
79301;SHT31;68755;51.984;5.646;2023-04-05T01:38:14;5.7;55.3
79301;SHT31;68755;51.984;5.646;2023-04-05T01:40:44;5.6;54.3
79301;SHT31;68755;51.984;5.646;2023-04-05T01:43:15;5.6;54.0
79301;SHT31;68755;51.984;5.646;2023-04-05T01:45:46;5.6;54.9
79301;SHT31;68755;51.984;5.646;2023-04-05T01:48:15;5.5;54.6
79301;SHT31;68755;51.984;5.646;2023-04-05T01:50:45;5.5;54.0
79301;SHT31;68755;51.984;5.646;2023-04-05T01:53:15;5.5;54.6
79301;SHT31;68755;51.984;5.646;2023-04-05T01:55:45;5.5;55.0
79301;SHT31;68755;51.984;5.646;2023-04-05T01:58:14;5.5;55.0
79301;SHT31;68755;51.984;5.646;2023-04-05T02:00:44;5.5;55.2
79301;SHT31;68755;51.984;5.646;2023-04-05T02:03:13;5.5;55.4
79301;SHT31;68755;51.984;5.646;2023-04-05T02:05:43;5.5;54.8
79301;SHT31;68755;51.984;5.646;2023-04-05T02:08:13;5.5;55.2
79301;SHT31;68755;51.984;5.646;2023-04-05T02:10:42;5.4;55.4
79301;SHT31;68755;51.984;5.646;2023-04-05T02:13:12;5.4;55.4
79301;SHT31;68755;51.984;5.646;2023-04-05T02:15:46;5.4;55.0
79301;SHT31;68755;51.984;5.646;2023-04-05T02:18:17;5.4;55.8
79301;SHT31;68755;51.984;5.646;2023-04-05T02:20:50;5.4;55.5
79301;SHT31;68755;51.984;5.646;2023-04-05T02:23:19;5.3;55.7
79301;SHT31;68755;51.984;5.646;2023-04-05T02:25:49;5.3;55.3
79301;SHT31;68755;51.984;5.646;2023-04-05T02:28:18;5.3;55.5
79301;SHT31;68755;51.984;5.646;2023-04-05T02:30:48;5.3;55.1
79301;SHT31;68755;51.984;5.646;2023-04-05T02:33:18;5.2;55.5
79301;SHT31;68755;51.984;5.646;2023-04-05T02:35:52;5.2;56.0
79301;SHT31;68755;51.984;5.646;2023-04-05T02:38:21;5.2;56.6
79301;SHT31;68755;51.984;5.646;2023-04-05T02:40:53;5.2;56.1
79301;SHT31;68755;51.984;5.646;2023-04-05T02:43:23;5.1;56.1
79301;SHT31;68755;51.984;5.646;2023-04-05T02:45:53;5.1;56.7
79301;SHT31;68755;51.984;5.646;2023-04-05T02:48:23;5.1;56.0
79301;SHT31;68755;51.984;5.646;2023-04-05T02:50:53;5.1;56.3
79301;SHT31;68755;51.984;5.646;2023-04-05T02:53:24;5.0;55.7
79301;SHT31;68755;51.984;5.646;2023-04-05T02:55:55;5.0;56.2
79301;SHT31;68755;51.984;5.646;2023-04-05T02:58:26;5.0;56.9
79301;SHT31;68755;51.984;5.646;2023-04-05T03:00:55;5.0;56.5
79301;SHT31;68755;51.984;5.646;2023-04-05T03:03:25;4.9;56.5
79301;SHT31;68755;51.984;5.646;2023-04-05T03:05:59;4.9;57.0
79301;SHT31;68755;51.984;5.646;2023-04-05T03:08:33;4.9;57.2
79301;SHT31;68755;51.984;5.646;2023-04-05T03:11:03;4.8;56.9
79301;SHT31;68755;51.984;5.646;2023-04-05T03:13:33;4.8;57.4
79301;SHT31;68755;51.984;5.646;2023-04-05T03:16:03;4.8;57.8
79301;SHT31;68755;51.984;5.646;2023-04-05T03:18:32;4.7;57.7
79301;SHT31;68755;51.984;5.646;2023-04-05T03:21:02;4.7;58.2
79301;SHT31;68755;51.984;5.646;2023-04-05T03:23:32;4.7;58.1
79301;SHT31;68755;51.984;5.646;2023-04-05T03:26:03;4.6;57.1
79301;SHT31;68755;51.984;5.646;2023-04-05T03:28:32;4.6;57.0
79301;SHT31;68755;51.984;5.646;2023-04-05T03:31:02;4.6;58.1
79301;SHT31;68755;51.984;5.646;2023-04-05T03:33:32;4.6;57.8
79301;SHT31;68755;51.984;5.646;2023-04-05T03:36:05;4.7;57.5
79301;SHT31;68755;51.984;5.646;2023-04-05T03:38:36;4.7;57.3
79301;SHT31;68755;51.984;5.646;2023-04-05T03:41:09;4.7;57.7
79301;SHT31;68755;51.984;5.646;2023-04-05T03:43:38;4.7;57.5
79301;SHT31;68755;51.984;5.646;2023-04-05T03:46:08;4.7;57.5
79301;SHT31;68755;51.984;5.646;2023-04-05T03:48:38;4.7;57.2
79301;SHT31;68755;51.984;5.646;2023-04-05T03:51:08;4.6;57.5
79301;SHT31;68755;51.984;5.646;2023-04-05T03:53:38;4.6;57.0
79301;SHT31;68755;51.984;5.646;2023-04-05T03:56:07;4.6;57.8
79301;SHT31;68755;51.984;5.646;2023-04-05T03:58:37;4.5;57.6
79301;SHT31;68755;51.984;5.646;2023-04-05T04:01:08;4.5;57.8
79301;SHT31;68755;51.984;5.646;2023-04-05T04:03:38;4.5;57.8
79301;SHT31;68755;51.984;5.646;2023-04-05T04:06:08;4.5;58.1
79301;SHT31;68755;51.984;5.646;2023-04-05T04:08:37;4.4;57.9
79301;SHT31;68755;51.984;5.646;2023-04-05T04:11:09;4.4;57.7
79301;SHT31;68755;51.984;5.646;2023-04-05T04:13:39;4.4;58.6
79301;SHT31;68755;51.984;5.646;2023-04-05T04:16:08;4.4;57.8
79301;SHT31;68755;51.984;5.646;2023-04-05T04:18:38;4.3;58.3
79301;SHT31;68755;51.984;5.646;2023-04-05T04:21:08;4.3;58.2
79301;SHT31;68755;51.984;5.646;2023-04-05T04:23:38;4.3;58.8
79301;SHT31;68755;51.984;5.646;2023-04-05T04:26:12;4.3;58.7
79301;SHT31;68755;51.984;5.646;2023-04-05T04:28:42;4.3;58.9
79301;SHT31;68755;51.984;5.646;2023-04-05T04:31:14;4.2;58.9
79301;SHT31;68755;51.984;5.646;2023-04-05T04:33:44;4.2;59.5
79301;SHT31;68755;51.984;5.646;2023-04-05T04:36:16;4.2;59.5
79301;SHT31;68755;51.984;5.646;2023-04-05T04:38:51;4.2;59.3
79301;SHT31;68755;51.984;5.646;2023-04-05T04:41:21;4.1;59.6
79301;SHT31;68755;51.984;5.646;2023-04-05T04:43:53;4.1;59.4
79301;SHT31;68755;51.984;5.646;2023-04-05T04:46:25;4.1;59.3
79301;SHT31;68755;51.984;5.646;2023-04-05T04:48:57;4.1;59.4
79301;SHT31;68755;51.984;5.646;2023-04-05T04:51:27;4.0;59.3
79301;SHT31;68755;51.984;5.646;2023-04-05T04:53:57;4.0;59.3
79301;SHT31;68755;51.984;5.646;2023-04-05T04:56:27;3.9;59.2
79301;SHT31;68755;51.984;5.646;2023-04-05T04:58:57;3.9;58.8
79301;SHT31;68755;51.984;5.646;2023-04-05T05:01:29;3.9;58.7
79301;SHT31;68755;51.984;5.646;2023-04-05T05:04:02;3.8;59.0
79301;SHT31;68755;51.984;5.646;2023-04-05T05:06:32;3.8;59.3
79301;SHT31;68755;51.984;5.646;2023-04-05T05:09:02;3.8;59.4
79301;SHT31;68755;51.984;5.646;2023-04-05T05:11:33;3.8;60.3
79301;SHT31;68755;51.984;5.646;2023-04-05T05:14:02;3.7;59.7
79301;SHT31;68755;51.984;5.646;2023-04-05T05:16:34;3.7;60.0
79301;SHT31;68755;51.984;5.646;2023-04-05T05:19:04;3.7;60.6
79301;SHT31;68755;51.984;5.646;2023-04-05T05:21:33;3.7;60.6
79301;SHT31;68755;51.984;5.646;2023-04-05T05:24:03;3.7;60.2
79301;SHT31;68755;51.984;5.646;2023-04-05T05:26:34;3.7;60.5
79301;SHT31;68755;51.984;5.646;2023-04-05T05:29:04;3.6;61.1
79301;SHT31;68755;51.984;5.646;2023-04-05T05:31:34;3.6;61.7
79301;SHT31;68755;51.984;5.646;2023-04-05T05:34:04;3.6;61.8
79301;SHT31;68755;51.984;5.646;2023-04-05T05:36:34;3.6;61.5
79301;SHT31;68755;51.984;5.646;2023-04-05T05:39:04;3.6;61.7
79301;SHT31;68755;51.984;5.646;2023-04-05T05:41:39;3.6;61.7
79301;SHT31;68755;51.984;5.646;2023-04-05T05:44:11;3.6;61.6
79301;SHT31;68755;51.984;5.646;2023-04-05T05:46:41;3.6;61.5
79301;SHT31;68755;51.984;5.646;2023-04-05T05:49:10;3.6;61.1
79301;SHT31;68755;51.984;5.646;2023-04-05T05:51:40;3.6;60.9
79301;SHT31;68755;51.984;5.646;2023-04-05T05:54:10;3.6;61.1
79301;SHT31;68755;51.984;5.646;2023-04-05T05:56:39;3.7;61.3
79301;SHT31;68755;51.984;5.646;2023-04-05T05:59:09;3.7;60.6
79301;SHT31;68755;51.984;5.646;2023-04-05T06:01:39;3.8;60.1
79301;SHT31;68755;51.984;5.646;2023-04-05T06:04:13;3.8;59.7
79301;SHT31;68755;51.984;5.646;2023-04-05T06:06:42;3.9;59.2
79301;SHT31;68755;51.984;5.646;2023-04-05T06:09:14;3.9;59.2
79301;SHT31;68755;51.984;5.646;2023-04-05T06:11:44;4.0;60.2
79301;SHT31;68755;51.984;5.646;2023-04-05T06:14:13;4.0;59.5
79301;SHT31;68755;51.984;5.646;2023-04-05T06:16:43;4.0;59.5
79301;SHT31;68755;51.984;5.646;2023-04-05T06:19:13;4.1;59.6
79301;SHT31;68755;51.984;5.646;2023-04-05T06:21:43;4.1;59.7
79301;SHT31;68755;51.984;5.646;2023-04-05T06:24:13;4.2;59.5
79301;SHT31;68755;51.984;5.646;2023-04-05T06:26:42;4.2;58.6
79301;SHT31;68755;51.984;5.646;2023-04-05T06:29:12;4.2;59.5
79301;SHT31;68755;51.984;5.646;2023-04-05T06:31:41;4.3;59.2
79301;SHT31;68755;51.984;5.646;2023-04-05T06:34:12;4.3;59.3
79301;SHT31;68755;51.984;5.646;2023-04-05T06:36:42;4.4;58.0
79301;SHT31;68755;51.984;5.646;2023-04-05T06:39:13;4.4;58.0
79301;SHT31;68755;51.984;5.646;2023-04-05T06:41:42;4.4;58.3
79301;SHT31;68755;51.984;5.646;2023-04-05T06:44:12;4.5;58.5
79301;SHT31;68755;51.984;5.646;2023-04-05T06:46:42;4.5;58.5
79301;SHT31;68755;51.984;5.646;2023-04-05T06:49:13;4.6;58.4
79301;SHT31;68755;51.984;5.646;2023-04-05T06:51:42;4.7;58.7
79301;SHT31;68755;51.984;5.646;2023-04-05T06:54:12;4.7;58.5
79301;SHT31;68755;51.984;5.646;2023-04-05T06:56:44;4.8;58.3
79301;SHT31;68755;51.984;5.646;2023-04-05T06:59:14;4.8;59.2
79301;SHT31;68755;51.984;5.646;2023-04-05T07:01:44;4.9;59.6
79301;SHT31;68755;51.984;5.646;2023-04-05T07:04:14;4.9;60.3
79301;SHT31;68755;51.984;5.646;2023-04-05T07:06:43;5.0;60.6
79301;SHT31;68755;51.984;5.646;2023-04-05T07:09:13;5.0;60.2
79301;SHT31;68755;51.984;5.646;2023-04-05T07:11:42;5.1;60.0
79301;SHT31;68755;51.984;5.646;2023-04-05T07:14:12;5.2;59.5
79301;SHT31;68755;51.984;5.646;2023-04-05T07:16:41;5.4;58.0
79301;SHT31;68755;51.984;5.646;2023-04-05T07:19:11;5.5;57.7
79301;SHT31;68755;51.984;5.646;2023-04-05T07:21:40;5.6;56.9
79301;SHT31;68755;51.984;5.646;2023-04-05T07:24:12;5.7;55.2
79301;SHT31;68755;51.984;5.646;2023-04-05T07:26:42;5.8;53.8
79301;SHT31;68755;51.984;5.646;2023-04-05T07:29:12;5.9;53.5
79301;SHT31;68755;51.984;5.646;2023-04-05T07:31:42;6.0;52.8
79301;SHT31;68755;51.984;5.646;2023-04-05T07:34:12;6.1;52.3
79301;SHT31;68755;51.984;5.646;2023-04-05T07:36:42;6.2;51.7
79301;SHT31;68755;51.984;5.646;2023-04-05T07:39:11;6.2;51.4
79301;SHT31;68755;51.984;5.646;2023-04-05T07:41:41;6.3;50.8
79301;SHT31;68755;51.984;5.646;2023-04-05T07:44:11;6.4;51.4
79301;SHT31;68755;51.984;5.646;2023-04-05T07:46:40;6.4;51.1
79301;SHT31;68755;51.984;5.646;2023-04-05T07:49:12;6.5;50.8
79301;SHT31;68755;51.984;5.646;2023-04-05T07:51:42;6.6;50.8
79301;SHT31;68755;51.984;5.646;2023-04-05T07:54:12;6.7;51.0
79301;SHT31;68755;51.984;5.646;2023-04-05T07:56:42;6.7;50.4
79301;SHT31;68755;51.984;5.646;2023-04-05T07:59:12;6.8;50.8
79301;SHT31;68755;51.984;5.646;2023-04-05T08:01:41;6.9;51.1
79301;SHT31;68755;51.984;5.646;2023-04-05T08:04:15;7.0;51.2
79301;SHT31;68755;51.984;5.646;2023-04-05T08:06:45;7.1;50.5
79301;SHT31;68755;51.984;5.646;2023-04-05T08:09:17;7.2;50.8
79301;SHT31;68755;51.984;5.646;2023-04-05T08:11:47;7.3;51.0
79301;SHT31;68755;51.984;5.646;2023-04-05T08:14:17;7.4;51.1
79301;SHT31;68755;51.984;5.646;2023-04-05T08:16:46;7.5;49.3
79301;SHT31;68755;51.984;5.646;2023-04-05T08:19:17;7.6;49.2
79301;SHT31;68755;51.984;5.646;2023-04-05T08:21:47;7.7;49.7
79301;SHT31;68755;51.984;5.646;2023-04-05T08:24:16;7.8;49.6
79301;SHT31;68755;51.984;5.646;2023-04-05T08:26:47;7.9;49.2
79301;SHT31;68755;51.984;5.646;2023-04-05T08:29:16;8.0;48.9
79301;SHT31;68755;51.984;5.646;2023-04-05T08:31:46;8.1;48.0
79301;SHT31;68755;51.984;5.646;2023-04-05T08:34:16;8.2;47.7
79301;SHT31;68755;51.984;5.646;2023-04-05T08:36:45;8.3;46.8
79301;SHT31;68755;51.984;5.646;2023-04-05T08:39:15;8.5;46.0
79301;SHT31;68755;51.984;5.646;2023-04-05T08:41:57;8.5;46.1
79301;SHT31;68755;51.984;5.646;2023-04-05T08:44:30;8.6;45.4
79301;SHT31;68755;51.984;5.646;2023-04-05T08:47:00;8.7;45.5
79301;SHT31;68755;51.984;5.646;2023-04-05T08:49:30;8.8;45.4
79301;SHT31;68755;51.984;5.646;2023-04-05T08:52:01;8.9;45.2
79301;SHT31;68755;51.984;5.646;2023-04-05T08:54:34;9.0;45.9
79301;SHT31;68755;51.984;5.646;2023-04-05T08:57:06;9.1;45.1
79301;SHT31;68755;51.984;5.646;2023-04-05T08:59:37;9.1;45.6
79301;SHT31;68755;51.984;5.646;2023-04-05T09:02:16;9.3;44.8
79301;SHT31;68755;51.984;5.646;2023-04-05T09:04:47;9.4;44.7
79301;SHT31;68755;51.984;5.646;2023-04-05T09:07:19;9.4;45.3
79301;SHT31;68755;51.984;5.646;2023-04-05T09:09:52;9.5;43.5
79301;SHT31;68755;51.984;5.646;2023-04-05T09:12:26;9.6;44.3
79301;SHT31;68755;51.984;5.646;2023-04-05T09:14:59;9.7;43.3
79301;SHT31;68755;51.984;5.646;2023-04-05T09:17:29;9.7;42.5
79301;SHT31;68755;51.984;5.646;2023-04-05T09:20:00;9.8;43.7
79301;SHT31;68755;51.984;5.646;2023-04-05T09:22:30;9.9;42.5
79301;SHT31;68755;51.984;5.646;2023-04-05T09:24:59;9.9;40.3
79301;SHT31;68755;51.984;5.646;2023-04-05T09:27:29;10.0;40.6
79301;SHT31;68755;51.984;5.646;2023-04-05T09:29:59;10.0;39.8
79301;SHT31;68755;51.984;5.646;2023-04-05T09:32:28;10.0;41.2
79301;SHT31;68755;51.984;5.646;2023-04-05T09:34:58;10.1;38.8
79301;SHT31;68755;51.984;5.646;2023-04-05T09:37:33;10.1;38.0
79301;SHT31;68755;51.984;5.646;2023-04-05T09:40:03;10.1;39.6
79301;SHT31;68755;51.984;5.646;2023-04-05T09:42:43;10.1;39.4
79301;SHT31;68755;51.984;5.646;2023-04-05T09:45:14;10.1;40.4
79301;SHT31;68755;51.984;5.646;2023-04-05T09:47:55;10.2;39.9
79301;SHT31;68755;51.984;5.646;2023-04-05T09:50:25;10.2;40.5
79301;SHT31;68755;51.984;5.646;2023-04-05T09:53:07;10.3;39.3
79301;SHT31;68755;51.984;5.646;2023-04-05T09:55:37;10.3;40.6
79301;SHT31;68755;51.984;5.646;2023-04-05T09:58:10;10.4;38.4
79301;SHT31;68755;51.984;5.646;2023-04-05T10:00:49;10.4;39.0
79301;SHT31;68755;51.984;5.646;2023-04-05T10:03:20;10.5;38.2
79301;SHT31;68755;51.984;5.646;2023-04-05T10:05:54;10.5;38.4
79301;SHT31;68755;51.984;5.646;2023-04-05T10:08:24;10.5;38.2
79301;SHT31;68755;51.984;5.646;2023-04-05T10:10:56;10.5;37.3
79301;SHT31;68755;51.984;5.646;2023-04-05T10:13:27;10.6;38.3
79301;SHT31;68755;51.984;5.646;2023-04-05T10:15:59;10.6;38.6
79301;SHT31;68755;51.984;5.646;2023-04-05T10:18:40;10.6;38.8
79301;SHT31;68755;51.984;5.646;2023-04-05T10:21:20;10.7;39.1
79301;SHT31;68755;51.984;5.646;2023-04-05T10:23:58;10.7;38.6
79301;SHT31;68755;51.984;5.646;2023-04-05T10:26:39;10.8;38.2
79301;SHT31;68755;51.984;5.646;2023-04-05T10:29:19;10.9;37.5
79301;SHT31;68755;51.984;5.646;2023-04-05T10:31:58;10.9;37.4
79301;SHT31;68755;51.984;5.646;2023-04-05T10:34:35;11.0;39.7
79301;SHT31;68755;51.984;5.646;2023-04-05T10:37:05;11.1;37.6
79301;SHT31;68755;51.984;5.646;2023-04-05T10:39:39;11.1;37.9
79301;SHT31;68755;51.984;5.646;2023-04-05T10:42:19;11.1;36.8
79301;SHT31;68755;51.984;5.646;2023-04-05T10:44:51;11.2;36.4
79301;SHT31;68755;51.984;5.646;2023-04-05T10:47:22;11.2;38.3
79301;SHT31;68755;51.984;5.646;2023-04-05T10:49:56;11.2;38.7
79301;SHT31;68755;51.984;5.646;2023-04-05T10:52:29;11.3;38.8
79301;SHT31;68755;51.984;5.646;2023-04-05T10:55:03;11.3;35.5
79301;SHT31;68755;51.984;5.646;2023-04-05T10:57:35;11.4;35.4
79301;SHT31;68755;51.984;5.646;2023-04-05T11:00:06;11.4;36.9
79301;SHT31;68755;51.984;5.646;2023-04-05T11:02:37;11.5;36.6
79301;SHT31;68755;51.984;5.646;2023-04-05T11:05:30;11.5;36.2
79301;SHT31;68755;51.984;5.646;2023-04-05T11:08:03;11.5;36.1
79301;SHT31;68755;51.984;5.646;2023-04-05T11:10:35;11.5;35.8
79301;SHT31;68755;51.984;5.646;2023-04-05T11:13:06;11.5;36.7
79301;SHT31;68755;51.984;5.646;2023-04-05T11:15:37;11.6;34.5
79301;SHT31;68755;51.984;5.646;2023-04-05T11:18:09;11.6;34.6
79301;SHT31;68755;51.984;5.646;2023-04-05T11:20:47;11.6;35.4
79301;SHT31;68755;51.984;5.646;2023-04-05T11:23:20;11.6;35.3
79301;SHT31;68755;51.984;5.646;2023-04-05T11:25:54;11.6;33.6
79301;SHT31;68755;51.984;5.646;2023-04-05T11:28:28;11.6;36.0
79301;SHT31;68755;51.984;5.646;2023-04-05T11:31:14;11.6;37.1
79301;SHT31;68755;51.984;5.646;2023-04-05T11:33:57;11.7;36.2
79301;SHT31;68755;51.984;5.646;2023-04-05T11:36:36;11.7;34.3
79301;SHT31;68755;51.984;5.646;2023-04-05T11:39:27;11.8;34.7
79301;SHT31;68755;51.984;5.646;2023-04-05T11:42:00;11.8;35.4
79301;SHT31;68755;51.984;5.646;2023-04-05T11:44:40;11.9;35.3
79301;SHT31;68755;51.984;5.646;2023-04-05T11:47:11;11.9;36.4
79301;SHT31;68755;51.984;5.646;2023-04-05T11:49:41;12.0;35.7
79301;SHT31;68755;51.984;5.646;2023-04-05T11:52:16;12.0;35.6
79301;SHT31;68755;51.984;5.646;2023-04-05T11:54:46;12.0;35.2
79301;SHT31;68755;51.984;5.646;2023-04-05T11:57:21;12.1;34.6
79301;SHT31;68755;51.984;5.646;2023-04-05T11:59:52;12.1;35.2
79301;SHT31;68755;51.984;5.646;2023-04-05T12:02:23;12.2;35.4
79301;SHT31;68755;51.984;5.646;2023-04-05T12:04:56;12.3;36.3
79301;SHT31;68755;51.984;5.646;2023-04-05T12:07:28;12.4;34.4
79301;SHT31;68755;51.984;5.646;2023-04-05T12:10:05;12.4;33.5
79301;SHT31;68755;51.984;5.646;2023-04-05T12:12:39;12.5;33.2
79301;SHT31;68755;51.984;5.646;2023-04-05T12:15:11;12.5;33.2
79301;SHT31;68755;51.984;5.646;2023-04-05T12:17:49;12.6;34.7
79301;SHT31;68755;51.984;5.646;2023-04-05T12:20:24;12.6;34.3
79301;SHT31;68755;51.984;5.646;2023-04-05T12:22:55;12.6;34.2
79301;SHT31;68755;51.984;5.646;2023-04-05T12:25:27;12.7;33.1
79301;SHT31;68755;51.984;5.646;2023-04-05T12:28:07;12.7;34.2
79301;SHT31;68755;51.984;5.646;2023-04-05T12:30:51;12.7;34.2
79301;SHT31;68755;51.984;5.646;2023-04-05T12:33:29;12.8;34.5
79301;SHT31;68755;51.984;5.646;2023-04-05T12:36:04;12.8;33.1
79301;SHT31;68755;51.984;5.646;2023-04-05T12:38:37;12.9;33.0
79301;SHT31;68755;51.984;5.646;2023-04-05T12:41:08;12.9;31.9
79301;SHT31;68755;51.984;5.646;2023-04-05T12:43:40;12.9;31.4
79301;SHT31;68755;51.984;5.646;2023-04-05T12:46:15;12.9;33.1
79301;SHT31;68755;51.984;5.646;2023-04-05T12:48:49;13.0;33.6
79301;SHT31;68755;51.984;5.646;2023-04-05T12:51:23;13.0;33.4
79301;SHT31;68755;51.984;5.646;2023-04-05T12:53:56;13.0;33.1
79301;SHT31;68755;51.984;5.646;2023-04-05T12:56:27;13.0;33.5
79301;SHT31;68755;51.984;5.646;2023-04-05T12:58:59;13.1;32.0
79301;SHT31;68755;51.984;5.646;2023-04-05T13:01:29;13.1;33.1
79301;SHT31;68755;51.984;5.646;2023-04-05T13:04:00;13.1;33.5
79301;SHT31;68755;51.984;5.646;2023-04-05T13:06:32;13.2;33.8
79301;SHT31;68755;51.984;5.646;2023-04-05T13:09:02;13.2;33.0
79301;SHT31;68755;51.984;5.646;2023-04-05T13:11:32;13.2;32.4
79301;SHT31;68755;51.984;5.646;2023-04-05T13:14:03;13.2;33.3
79301;SHT31;68755;51.984;5.646;2023-04-05T13:16:33;13.2;32.9
79301;SHT31;68755;51.984;5.646;2023-04-05T13:19:03;13.2;33.7
79301;SHT31;68755;51.984;5.646;2023-04-05T13:21:33;13.2;33.6
79301;SHT31;68755;51.984;5.646;2023-04-05T13:24:03;13.2;32.5
79301;SHT31;68755;51.984;5.646;2023-04-05T13:26:33;13.2;33.4
79301;SHT31;68755;51.984;5.646;2023-04-05T13:29:02;13.2;34.2
79301;SHT31;68755;51.984;5.646;2023-04-05T13:31:35;13.2;33.7
79301;SHT31;68755;51.984;5.646;2023-04-05T13:34:07;13.2;33.0
79301;SHT31;68755;51.984;5.646;2023-04-05T13:36:37;13.1;32.6
79301;SHT31;68755;51.984;5.646;2023-04-05T13:39:07;13.1;33.0
79301;SHT31;68755;51.984;5.646;2023-04-05T13:41:37;13.1;33.4
79301;SHT31;68755;51.984;5.646;2023-04-05T13:44:06;13.1;33.0
79301;SHT31;68755;51.984;5.646;2023-04-05T13:46:36;13.1;31.2
79301;SHT31;68755;51.984;5.646;2023-04-05T13:49:08;13.0;32.3
79301;SHT31;68755;51.984;5.646;2023-04-05T13:51:37;13.0;31.8
79301;SHT31;68755;51.984;5.646;2023-04-05T13:54:10;13.0;32.9
79301;SHT31;68755;51.984;5.646;2023-04-05T13:56:41;12.9;32.5
79301;SHT31;68755;51.984;5.646;2023-04-05T13:59:11;12.9;32.6
79301;SHT31;68755;51.984;5.646;2023-04-05T14:01:43;12.9;31.6
79301;SHT31;68755;51.984;5.646;2023-04-05T14:04:13;12.9;32.7
79301;SHT31;68755;51.984;5.646;2023-04-05T14:06:44;12.9;32.2
79301;SHT31;68755;51.984;5.646;2023-04-05T14:09:14;12.9;31.6
79301;SHT31;68755;51.984;5.646;2023-04-05T14:11:45;12.9;32.7
79301;SHT31;68755;51.984;5.646;2023-04-05T14:14:15;12.8;33.0
79301;SHT31;68755;51.984;5.646;2023-04-05T14:16:44;12.8;33.1
79301;SHT31;68755;51.984;5.646;2023-04-05T14:19:14;12.8;33.8
79301;SHT31;68755;51.984;5.646;2023-04-05T14:21:44;12.8;33.8
79301;SHT31;68755;51.984;5.646;2023-04-05T14:24:14;12.8;33.1
79301;SHT31;68755;51.984;5.646;2023-04-05T14:26:44;12.8;32.7
79301;SHT31;68755;51.984;5.646;2023-04-05T14:29:17;12.8;32.6
79301;SHT31;68755;51.984;5.646;2023-04-05T14:31:49;12.8;33.0
79301;SHT31;68755;51.984;5.646;2023-04-05T14:34:18;12.8;31.4
79301;SHT31;68755;51.984;5.646;2023-04-05T14:36:48;12.7;32.5
79301;SHT31;68755;51.984;5.646;2023-04-05T14:39:19;12.7;32.0
79301;SHT31;68755;51.984;5.646;2023-04-05T14:41:49;12.7;33.8
79301;SHT31;68755;51.984;5.646;2023-04-05T14:44:19;12.7;31.9
79301;SHT31;68755;51.984;5.646;2023-04-05T14:46:49;12.7;32.9
79301;SHT31;68755;51.984;5.646;2023-04-05T14:49:18;12.7;32.4
79301;SHT31;68755;51.984;5.646;2023-04-05T14:51:48;12.7;32.5
79301;SHT31;68755;51.984;5.646;2023-04-05T14:54:18;12.6;32.3
79301;SHT31;68755;51.984;5.646;2023-04-05T14:56:47;12.6;32.1
79301;SHT31;68755;51.984;5.646;2023-04-05T14:59:17;12.6;31.9
79301;SHT31;68755;51.984;5.646;2023-04-05T15:01:46;12.6;32.3
79301;SHT31;68755;51.984;5.646;2023-04-05T15:04:18;12.6;32.4
79301;SHT31;68755;51.984;5.646;2023-04-05T15:06:48;12.6;32.4
79301;SHT31;68755;51.984;5.646;2023-04-05T15:09:17;12.6;32.2
79301;SHT31;68755;51.984;5.646;2023-04-05T15:11:47;12.6;31.9
79301;SHT31;68755;51.984;5.646;2023-04-05T15:14:17;12.5;32.5
79301;SHT31;68755;51.984;5.646;2023-04-05T15:16:48;12.5;33.2
79301;SHT31;68755;51.984;5.646;2023-04-05T15:19:18;12.5;32.6
79301;SHT31;68755;51.984;5.646;2023-04-05T15:21:48;12.5;33.0
79301;SHT31;68755;51.984;5.646;2023-04-05T15:24:18;12.5;33.6
79301;SHT31;68755;51.984;5.646;2023-04-05T15:26:48;12.5;31.8
79301;SHT31;68755;51.984;5.646;2023-04-05T15:29:17;12.5;32.3
79301;SHT31;68755;51.984;5.646;2023-04-05T15:31:47;12.5;31.7
79301;SHT31;68755;51.984;5.646;2023-04-05T15:34:20;12.5;32.2
79301;SHT31;68755;51.984;5.646;2023-04-05T15:36:49;12.5;33.1
79301;SHT31;68755;51.984;5.646;2023-04-05T15:39:21;12.5;32.5
79301;SHT31;68755;51.984;5.646;2023-04-05T15:41:51;12.4;32.8
79301;SHT31;68755;51.984;5.646;2023-04-05T15:44:21;12.4;33.1
79301;SHT31;68755;51.984;5.646;2023-04-05T15:46:53;12.4;33.3
79301;SHT31;68755;51.984;5.646;2023-04-05T15:49:24;12.4;33.2
79301;SHT31;68755;51.984;5.646;2023-04-05T15:51:54;12.4;33.4
79301;SHT31;68755;51.984;5.646;2023-04-05T15:54:24;12.4;31.6
79301;SHT31;68755;51.984;5.646;2023-04-05T15:56:53;12.4;31.9
79301;SHT31;68755;51.984;5.646;2023-04-05T15:59:24;12.4;32.6
79301;SHT31;68755;51.984;5.646;2023-04-05T16:01:54;12.4;32.4
79301;SHT31;68755;51.984;5.646;2023-04-05T16:04:24;12.3;32.8
79301;SHT31;68755;51.984;5.646;2023-04-05T16:06:55;12.3;32.3
79301;SHT31;68755;51.984;5.646;2023-04-05T16:09:26;12.3;32.6
79301;SHT31;68755;51.984;5.646;2023-04-05T16:11:56;12.3;32.1
79301;SHT31;68755;51.984;5.646;2023-04-05T16:14:26;12.3;32.9
79301;SHT31;68755;51.984;5.646;2023-04-05T16:16:56;12.3;33.1
79301;SHT31;68755;51.984;5.646;2023-04-05T16:19:29;12.3;32.8
79301;SHT31;68755;51.984;5.646;2023-04-05T16:21:58;12.3;30.7
79301;SHT31;68755;51.984;5.646;2023-04-05T16:24:30;12.2;31.7
79301;SHT31;68755;51.984;5.646;2023-04-05T16:27:03;12.2;31.5
79301;SHT31;68755;51.984;5.646;2023-04-05T16:29:33;12.2;32.9
79301;SHT31;68755;51.984;5.646;2023-04-05T16:32:02;12.2;31.8
79301;SHT31;68755;51.984;5.646;2023-04-05T16:34:32;12.2;31.2
79301;SHT31;68755;51.984;5.646;2023-04-05T16:37:02;12.2;32.6
79301;SHT31;68755;51.984;5.646;2023-04-05T16:39:32;12.1;32.6